ローマ/フィウミチーノ の空港の天気 - METARとTAF

ローマ・レオナルド・ダ・ビンチ国際空港 ( LIRF / FCO ) - イタリア ローマ
飛行場実況気象(Metar)
観測時間08/01 10:20 CEST (08/01 08:20 UTC)
風向・風速南 5m/s
視程10km以上
天気現象
なし
気温31℃
湿度62%
気圧1008hPa
METARLIRF 010820Z 17010KT CAVOK 31/23 Q1008 NOSIG
過去の天気等 Google飛行場航空写真 Wunderground天気予報

過去48時間のMETAR

飛行場予報(TAF)
発表時間: 8/01 07:00 CEST (8/01 05:00 UTC)
予報対象時間: 1日8時 CEST ~ 2日14時 CEST
風向・風速南南東 7m/s
視程10km以上
全天の4割程度の雲 雲底高度 910m
1日8時 CEST ~ 1日11時 CEST に徐々に
風向・風速西南西 8m/s
TAF LIRF 010500Z 0106/0212 16013KT 9999 SCT030
BECMG 0106/0109 25016KT